sensor_id;sensor_type;location;lat;lon;timestamp;P1;durP1;ratioP1;P2;durP2;ratioP2
74328;SDS011;62745;51.060;13.786;2022-09-02T00:00:50;5.25;;;2.47;;
74328;SDS011;62745;51.060;13.786;2022-09-02T00:03:17;3.72;;;1.90;;
74328;SDS011;62745;51.060;13.786;2022-09-02T00:05:43;5.55;;;2.22;;
74328;SDS011;62745;51.060;13.786;2022-09-02T00:08:09;4.13;;;2.08;;
74328;SDS011;62745;51.060;13.786;2022-09-02T00:10:37;4.28;;;2.47;;
74328;SDS011;62745;51.060;13.786;2022-09-02T00:13:05;4.95;;;2.08;;
74328;SDS011;62745;51.060;13.786;2022-09-02T00:15:31;7.32;;;2.40;;
74328;SDS011;62745;51.060;13.786;2022-09-02T00:17:58;4.45;;;2.10;;
74328;SDS011;62745;51.060;13.786;2022-09-02T00:20:23;4.00;;;2.10;;
74328;SDS011;62745;51.060;13.786;2022-09-02T00:22:48;3.53;;;2.00;;
74328;SDS011;62745;51.060;13.786;2022-09-02T00:25:14;5.63;;;1.80;;
74328;SDS011;62745;51.060;13.786;2022-09-02T00:27:39;5.30;;;2.28;;
74328;SDS011;62745;51.060;13.786;2022-09-02T00:30:05;8.53;;;2.33;;
74328;SDS011;62745;51.060;13.786;2022-09-02T00:32:31;4.07;;;2.00;;
74328;SDS011;62745;51.060;13.786;2022-09-02T00:34:56;3.65;;;2.20;;
74328;SDS011;62745;51.060;13.786;2022-09-02T00:37:22;4.72;;;2.10;;
74328;SDS011;62745;51.060;13.786;2022-09-02T00:39:50;5.60;;;2.20;;
74328;SDS011;62745;51.060;13.786;2022-09-02T00:42:17;4.70;;;2.30;;
74328;SDS011;62745;51.060;13.786;2022-09-02T00:44:43;5.90;;;2.00;;
74328;SDS011;62745;51.060;13.786;2022-09-02T00:47:08;4.77;;;2.10;;
74328;SDS011;62745;51.060;13.786;2022-09-02T00:49:34;6.37;;;2.27;;
74328;SDS011;62745;51.060;13.786;2022-09-02T00:52:08;5.25;;;2.00;;
74328;SDS011;62745;51.060;13.786;2022-09-02T00:54:51;7.28;;;2.40;;
74328;SDS011;62745;51.060;13.786;2022-09-02T00:57:21;5.40;;;2.25;;
74328;SDS011;62745;51.060;13.786;2022-09-02T00:59:53;5.07;;;2.20;;
74328;SDS011;62745;51.060;13.786;2022-09-02T01:02:22;4.97;;;2.15;;
74328;SDS011;62745;51.060;13.786;2022-09-02T01:04:50;4.50;;;2.20;;
74328;SDS011;62745;51.060;13.786;2022-09-02T01:07:17;6.28;;;2.50;;
74328;SDS011;62745;51.060;13.786;2022-09-02T01:09:42;3.87;;;1.97;;
74328;SDS011;62745;51.060;13.786;2022-09-02T01:12:07;5.07;;;2.10;;
74328;SDS011;62745;51.060;13.786;2022-09-02T01:14:33;5.00;;;2.30;;
74328;SDS011;62745;51.060;13.786;2022-09-02T01:16:59;3.90;;;2.10;;
74328;SDS011;62745;51.060;13.786;2022-09-02T01:19:28;5.05;;;2.10;;
74328;SDS011;62745;51.060;13.786;2022-09-02T01:21:58;4.47;;;2.22;;
74328;SDS011;62745;51.060;13.786;2022-09-02T01:24:25;3.67;;;2.17;;
74328;SDS011;62745;51.060;13.786;2022-09-02T01:26:54;5.47;;;2.22;;
74328;SDS011;62745;51.060;13.786;2022-09-02T01:29:21;3.65;;;1.90;;
74328;SDS011;62745;51.060;13.786;2022-09-02T01:31:48;3.92;;;2.08;;
74328;SDS011;62745;51.060;13.786;2022-09-02T01:34:13;5.65;;;2.25;;
74328;SDS011;62745;51.060;13.786;2022-09-02T01:36:39;3.42;;;1.88;;
74328;SDS011;62745;51.060;13.786;2022-09-02T01:39:06;4.85;;;2.20;;
74328;SDS011;62745;51.060;13.786;2022-09-02T01:41:32;3.78;;;2.00;;
74328;SDS011;62745;51.060;13.786;2022-09-02T01:43:58;4.97;;;2.20;;
74328;SDS011;62745;51.060;13.786;2022-09-02T01:46:23;3.53;;;1.97;;
74328;SDS011;62745;51.060;13.786;2022-09-02T01:48:49;4.70;;;2.00;;
74328;SDS011;62745;51.060;13.786;2022-09-02T01:51:17;5.40;;;2.03;;
74328;SDS011;62745;51.060;13.786;2022-09-02T01:53:44;4.90;;;2.25;;
74328;SDS011;62745;51.060;13.786;2022-09-02T01:56:10;5.28;;;2.20;;
74328;SDS011;62745;51.060;13.786;2022-09-02T01:58:35;3.70;;;2.10;;
74328;SDS011;62745;51.060;13.786;2022-09-02T02:01:01;7.10;;;2.30;;
74328;SDS011;62745;51.060;13.786;2022-09-02T02:03:27;5.38;;;2.30;;
74328;SDS011;62745;51.060;13.786;2022-09-02T02:05:52;3.60;;;1.83;;
74328;SDS011;62745;51.060;13.786;2022-09-02T02:08:18;8.02;;;2.20;;
74328;SDS011;62745;51.060;13.786;2022-09-02T02:10:43;3.60;;;2.03;;
74328;SDS011;62745;51.060;13.786;2022-09-02T02:13:08;4.43;;;2.03;;
74328;SDS011;62745;51.060;13.786;2022-09-02T02:15:38;7.30;;;2.35;;
74328;SDS011;62745;51.060;13.786;2022-09-02T02:18:05;5.10;;;2.20;;
74328;SDS011;62745;51.060;13.786;2022-09-02T02:20:31;5.60;;;2.38;;
74328;SDS011;62745;51.060;13.786;2022-09-02T02:22:56;3.50;;;2.00;;
74328;SDS011;62745;51.060;13.786;2022-09-02T02:25:22;4.70;;;2.23;;
74328;SDS011;62745;51.060;13.786;2022-09-02T02:27:47;4.23;;;2.30;;
74328;SDS011;62745;51.060;13.786;2022-09-02T02:30:13;3.88;;;2.30;;
74328;SDS011;62745;51.060;13.786;2022-09-02T02:32:40;5.38;;;2.30;;
74328;SDS011;62745;51.060;13.786;2022-09-02T02:35:06;4.60;;;2.05;;
74328;SDS011;62745;51.060;13.786;2022-09-02T02:37:32;4.05;;;2.20;;
74328;SDS011;62745;51.060;13.786;2022-09-02T02:39:57;3.90;;;2.15;;
74328;SDS011;62745;51.060;13.786;2022-09-02T02:42:22;6.40;;;2.17;;
74328;SDS011;62745;51.060;13.786;2022-09-02T02:44:47;3.90;;;2.03;;
74328;SDS011;62745;51.060;13.786;2022-09-02T02:47:13;5.35;;;2.60;;
74328;SDS011;62745;51.060;13.786;2022-09-02T02:49:39;4.30;;;2.40;;
74328;SDS011;62745;51.060;13.786;2022-09-02T02:52:06;4.20;;;2.35;;
74328;SDS011;62745;51.060;13.786;2022-09-02T02:54:33;4.63;;;2.08;;
74328;SDS011;62745;51.060;13.786;2022-09-02T02:56:58;5.03;;;2.35;;
74328;SDS011;62745;51.060;13.786;2022-09-02T02:59:23;4.22;;;2.30;;
74328;SDS011;62745;51.060;13.786;2022-09-02T03:01:50;3.88;;;2.22;;
74328;SDS011;62745;51.060;13.786;2022-09-02T03:04:15;5.95;;;2.63;;
74328;SDS011;62745;51.060;13.786;2022-09-02T03:06:40;5.37;;;2.63;;
74328;SDS011;62745;51.060;13.786;2022-09-02T03:09:08;3.87;;;2.30;;
74328;SDS011;62745;51.060;13.786;2022-09-02T03:11:39;4.72;;;2.30;;
74328;SDS011;62745;51.060;13.786;2022-09-02T03:14:04;5.77;;;2.43;;
74328;SDS011;62745;51.060;13.786;2022-09-02T03:16:32;4.32;;;2.17;;
74328;SDS011;62745;51.060;13.786;2022-09-02T03:18:58;3.70;;;2.20;;
74328;SDS011;62745;51.060;13.786;2022-09-02T03:21:23;5.20;;;2.23;;
74328;SDS011;62745;51.060;13.786;2022-09-02T03:23:49;6.53;;;2.67;;
74328;SDS011;62745;51.060;13.786;2022-09-02T03:26:18;4.10;;;2.27;;
74328;SDS011;62745;51.060;13.786;2022-09-02T03:28:45;6.05;;;2.80;;
74328;SDS011;62745;51.060;13.786;2022-09-02T03:31:18;6.32;;;2.90;;
74328;SDS011;62745;51.060;13.786;2022-09-02T03:33:45;3.85;;;2.30;;
74328;SDS011;62745;51.060;13.786;2022-09-02T03:36:17;5.05;;;2.55;;
74328;SDS011;62745;51.060;13.786;2022-09-02T03:38:44;4.63;;;2.30;;
74328;SDS011;62745;51.060;13.786;2022-09-02T03:41:09;7.20;;;2.60;;
74328;SDS011;62745;51.060;13.786;2022-09-02T03:43:34;4.90;;;2.63;;
74328;SDS011;62745;51.060;13.786;2022-09-02T03:46:00;4.27;;;2.40;;
74328;SDS011;62745;51.060;13.786;2022-09-02T03:48:25;3.78;;;2.28;;
74328;SDS011;62745;51.060;13.786;2022-09-02T03:50:50;5.67;;;2.47;;
74328;SDS011;62745;51.060;13.786;2022-09-02T03:53:16;4.40;;;2.33;;
74328;SDS011;62745;51.060;13.786;2022-09-02T03:55:41;5.30;;;2.70;;
74328;SDS011;62745;51.060;13.786;2022-09-02T03:58:06;6.27;;;2.60;;
74328;SDS011;62745;51.060;13.786;2022-09-02T04:00:31;6.53;;;2.30;;
74328;SDS011;62745;51.060;13.786;2022-09-02T04:02:58;5.53;;;2.50;;
74328;SDS011;62745;51.060;13.786;2022-09-02T04:05:24;4.10;;;2.30;;
74328;SDS011;62745;51.060;13.786;2022-09-02T04:07:50;4.33;;;2.20;;
74328;SDS011;62745;51.060;13.786;2022-09-02T04:10:16;5.25;;;2.45;;
74328;SDS011;62745;51.060;13.786;2022-09-02T04:12:42;6.72;;;2.70;;
74328;SDS011;62745;51.060;13.786;2022-09-02T04:15:08;4.50;;;2.40;;
74328;SDS011;62745;51.060;13.786;2022-09-02T04:17:34;5.07;;;2.53;;
74328;SDS011;62745;51.060;13.786;2022-09-02T04:20:00;5.53;;;2.50;;
74328;SDS011;62745;51.060;13.786;2022-09-02T04:22:26;4.28;;;2.83;;
74328;SDS011;62745;51.060;13.786;2022-09-02T04:24:51;4.47;;;2.60;;
74328;SDS011;62745;51.060;13.786;2022-09-02T04:27:17;4.27;;;2.30;;
74328;SDS011;62745;51.060;13.786;2022-09-02T04:29:42;6.00;;;2.70;;
74328;SDS011;62745;51.060;13.786;2022-09-02T04:32:07;4.40;;;2.53;;
74328;SDS011;62745;51.060;13.786;2022-09-02T04:34:32;3.83;;;2.27;;
74328;SDS011;62745;51.060;13.786;2022-09-02T04:36:58;6.63;;;2.80;;
74328;SDS011;62745;51.060;13.786;2022-09-02T04:39:23;7.33;;;2.87;;
74328;SDS011;62745;51.060;13.786;2022-09-02T04:41:48;5.97;;;2.47;;
74328;SDS011;62745;51.060;13.786;2022-09-02T04:44:14;6.20;;;3.05;;
74328;SDS011;62745;51.060;13.786;2022-09-02T04:46:39;6.63;;;2.60;;
74328;SDS011;62745;51.060;13.786;2022-09-02T04:49:04;4.77;;;2.57;;
74328;SDS011;62745;51.060;13.786;2022-09-02T04:51:29;5.87;;;2.70;;
74328;SDS011;62745;51.060;13.786;2022-09-02T04:53:55;6.47;;;2.72;;
74328;SDS011;62745;51.060;13.786;2022-09-02T04:56:25;5.43;;;2.67;;
74328;SDS011;62745;51.060;13.786;2022-09-02T04:58:52;4.18;;;2.50;;
74328;SDS011;62745;51.060;13.786;2022-09-02T05:01:19;4.10;;;2.58;;
74328;SDS011;62745;51.060;13.786;2022-09-02T05:03:50;3.92;;;2.53;;
74328;SDS011;62745;51.060;13.786;2022-09-02T05:06:20;4.65;;;2.63;;
74328;SDS011;62745;51.060;13.786;2022-09-02T05:08:47;7.10;;;2.88;;
74328;SDS011;62745;51.060;13.786;2022-09-02T05:11:17;4.97;;;2.78;;
74328;SDS011;62745;51.060;13.786;2022-09-02T05:13:45;7.75;;;2.40;;
74328;SDS011;62745;51.060;13.786;2022-09-02T05:16:19;5.63;;;2.67;;
74328;SDS011;62745;51.060;13.786;2022-09-02T05:18:50;4.10;;;2.38;;
74328;SDS011;62745;51.060;13.786;2022-09-02T05:21:16;4.78;;;2.42;;
74328;SDS011;62745;51.060;13.786;2022-09-02T05:23:42;6.40;;;2.42;;
74328;SDS011;62745;51.060;13.786;2022-09-02T05:26:08;4.75;;;2.88;;
74328;SDS011;62745;51.060;13.786;2022-09-02T05:28:36;6.47;;;2.45;;
74328;SDS011;62745;51.060;13.786;2022-09-02T05:31:03;6.57;;;2.72;;
74328;SDS011;62745;51.060;13.786;2022-09-02T05:33:31;7.85;;;3.08;;
74328;SDS011;62745;51.060;13.786;2022-09-02T05:35:58;5.78;;;2.53;;
74328;SDS011;62745;51.060;13.786;2022-09-02T05:38:23;5.10;;;2.80;;
74328;SDS011;62745;51.060;13.786;2022-09-02T05:40:49;5.75;;;2.80;;
74328;SDS011;62745;51.060;13.786;2022-09-02T05:43:14;5.65;;;3.22;;
74328;SDS011;62745;51.060;13.786;2022-09-02T05:45:40;5.97;;;2.93;;
74328;SDS011;62745;51.060;13.786;2022-09-02T05:48:05;5.47;;;3.13;;
74328;SDS011;62745;51.060;13.786;2022-09-02T05:50:50;5.25;;;3.13;;
74328;SDS011;62745;51.060;13.786;2022-09-02T05:53:15;6.33;;;3.57;;
74328;SDS011;62745;51.060;13.786;2022-09-02T05:55:41;8.40;;;3.60;;
74328;SDS011;62745;51.060;13.786;2022-09-02T05:58:06;7.15;;;3.53;;
74328;SDS011;62745;51.060;13.786;2022-09-02T06:00:32;7.28;;;3.70;;
74328;SDS011;62745;51.060;13.786;2022-09-02T06:02:57;5.83;;;3.13;;
74328;SDS011;62745;51.060;13.786;2022-09-02T06:05:22;6.27;;;3.60;;
74328;SDS011;62745;51.060;13.786;2022-09-02T06:07:48;5.80;;;3.60;;
74328;SDS011;62745;51.060;13.786;2022-09-02T06:10:13;6.43;;;3.47;;
74328;SDS011;62745;51.060;13.786;2022-09-02T06:12:38;8.00;;;3.60;;
74328;SDS011;62745;51.060;13.786;2022-09-02T06:15:05;6.25;;;3.80;;
74328;SDS011;62745;51.060;13.786;2022-09-02T06:17:31;7.05;;;3.47;;
74328;SDS011;62745;51.060;13.786;2022-09-02T06:19:56;6.03;;;3.10;;
74328;SDS011;62745;51.060;13.786;2022-09-02T06:22:21;6.13;;;3.77;;
74328;SDS011;62745;51.060;13.786;2022-09-02T06:24:47;5.57;;;3.22;;
74328;SDS011;62745;51.060;13.786;2022-09-02T06:27:12;5.80;;;3.43;;
74328;SDS011;62745;51.060;13.786;2022-09-02T06:29:37;8.20;;;3.73;;
74328;SDS011;62745;51.060;13.786;2022-09-02T06:32:03;6.20;;;3.70;;
74328;SDS011;62745;51.060;13.786;2022-09-02T06:34:28;6.18;;;3.40;;
74328;SDS011;62745;51.060;13.786;2022-09-02T06:36:53;5.60;;;3.60;;
74328;SDS011;62745;51.060;13.786;2022-09-02T06:39:20;5.57;;;3.33;;
74328;SDS011;62745;51.060;13.786;2022-09-02T06:41:46;6.72;;;3.13;;
74328;SDS011;62745;51.060;13.786;2022-09-02T06:44:13;4.88;;;3.03;;
74328;SDS011;62745;51.060;13.786;2022-09-02T06:46:40;5.15;;;2.95;;
74328;SDS011;62745;51.060;13.786;2022-09-02T06:49:08;5.07;;;2.95;;
74328;SDS011;62745;51.060;13.786;2022-09-02T06:51:36;6.63;;;3.00;;
74328;SDS011;62745;51.060;13.786;2022-09-02T06:54:07;7.07;;;2.55;;
74328;SDS011;62745;51.060;13.786;2022-09-02T06:56:34;6.57;;;3.20;;
74328;SDS011;62745;51.060;13.786;2022-09-02T06:59:00;6.30;;;2.92;;
74328;SDS011;62745;51.060;13.786;2022-09-02T07:01:27;4.93;;;2.50;;
74328;SDS011;62745;51.060;13.786;2022-09-02T07:03:54;6.20;;;2.50;;
74328;SDS011;62745;51.060;13.786;2022-09-02T07:06:40;5.10;;;2.60;;
74328;SDS011;62745;51.060;13.786;2022-09-02T07:09:17;6.50;;;2.55;;
74328;SDS011;62745;51.060;13.786;2022-09-02T07:11:45;5.50;;;2.25;;
74328;SDS011;62745;51.060;13.786;2022-09-02T07:14:12;4.10;;;2.38;;
74328;SDS011;62745;51.060;13.786;2022-09-02T07:16:43;4.18;;;2.28;;
74328;SDS011;62745;51.060;13.786;2022-09-02T07:19:10;4.40;;;2.22;;
74328;SDS011;62745;51.060;13.786;2022-09-02T07:21:37;3.90;;;2.00;;
74328;SDS011;62745;51.060;13.786;2022-09-02T07:24:05;3.50;;;1.92;;
74328;SDS011;62745;51.060;13.786;2022-09-02T07:26:30;5.35;;;2.30;;
74328;SDS011;62745;51.060;13.786;2022-09-02T07:28:55;3.80;;;2.00;;
74328;SDS011;62745;51.060;13.786;2022-09-02T07:31:21;5.28;;;1.98;;
74328;SDS011;62745;51.060;13.786;2022-09-02T07:33:47;5.25;;;1.90;;
74328;SDS011;62745;51.060;13.786;2022-09-02T07:36:13;6.22;;;2.30;;
74328;SDS011;62745;51.060;13.786;2022-09-02T07:38:39;3.72;;;1.73;;
74328;SDS011;62745;51.060;13.786;2022-09-02T07:41:06;4.53;;;2.15;;
74328;SDS011;62745;51.060;13.786;2022-09-02T07:43:32;3.55;;;1.80;;
74328;SDS011;62745;51.060;13.786;2022-09-02T07:45:59;5.82;;;1.98;;
74328;SDS011;62745;51.060;13.786;2022-09-02T07:48:25;5.32;;;1.85;;
74328;SDS011;62745;51.060;13.786;2022-09-02T07:50:52;5.70;;;2.00;;
74328;SDS011;62745;51.060;13.786;2022-09-02T07:53:18;4.97;;;1.80;;
74328;SDS011;62745;51.060;13.786;2022-09-02T07:55:44;6.65;;;1.55;;
74328;SDS011;62745;51.060;13.786;2022-09-02T07:58:10;3.05;;;1.20;;
74328;SDS011;62745;51.060;13.786;2022-09-02T08:00:36;3.15;;;1.27;;
74328;SDS011;62745;51.060;13.786;2022-09-02T08:03:03;3.17;;;1.20;;
74328;SDS011;62745;51.060;13.786;2022-09-02T08:05:29;3.47;;;1.20;;
74328;SDS011;62745;51.060;13.786;2022-09-02T08:07:56;2.88;;;1.20;;
74328;SDS011;62745;51.060;13.786;2022-09-02T08:10:22;3.65;;;1.58;;
74328;SDS011;62745;51.060;13.786;2022-09-02T08:12:49;2.75;;;1.15;;
74328;SDS011;62745;51.060;13.786;2022-09-02T08:15:15;5.72;;;1.30;;
74328;SDS011;62745;51.060;13.786;2022-09-02T08:17:43;2.10;;;0.82;;
74328;SDS011;62745;51.060;13.786;2022-09-02T08:20:09;2.75;;;0.93;;
74328;SDS011;62745;51.060;13.786;2022-09-02T08:22:36;3.28;;;0.90;;
74328;SDS011;62745;51.060;13.786;2022-09-02T08:25:02;2.85;;;0.98;;
74328;SDS011;62745;51.060;13.786;2022-09-02T08:27:28;3.33;;;1.00;;
74328;SDS011;62745;51.060;13.786;2022-09-02T08:29:53;3.03;;;0.80;;
74328;SDS011;62745;51.060;13.786;2022-09-02T08:32:18;3.60;;;0.83;;
74328;SDS011;62745;51.060;13.786;2022-09-02T08:34:44;2.55;;;0.70;;
74328;SDS011;62745;51.060;13.786;2022-09-02T08:37:09;3.35;;;1.02;;
74328;SDS011;62745;51.060;13.786;2022-09-02T08:39:35;1.98;;;0.90;;
74328;SDS011;62745;51.060;13.786;2022-09-02T08:42:21;1.45;;;0.70;;
74328;SDS011;62745;51.060;13.786;2022-09-02T08:44:49;2.63;;;1.00;;
74328;SDS011;62745;51.060;13.786;2022-09-02T08:47:20;1.60;;;0.80;;
74328;SDS011;62745;51.060;13.786;2022-09-02T08:49:49;2.75;;;0.70;;
74328;SDS011;62745;51.060;13.786;2022-09-02T08:52:24;3.60;;;0.80;;
74328;SDS011;62745;51.060;13.786;2022-09-02T08:54:55;3.63;;;0.63;;
74328;SDS011;62745;51.060;13.786;2022-09-02T08:57:21;2.28;;;0.70;;
74328;SDS011;62745;51.060;13.786;2022-09-02T08:59:50;3.92;;;0.88;;
74328;SDS011;62745;51.060;13.786;2022-09-02T09:05:00;1.25;;;0.70;;
74328;SDS011;62745;51.060;13.786;2022-09-02T09:10:17;1.60;;;0.90;;
74328;SDS011;62745;51.060;13.786;2022-09-02T09:18:05;1.83;;;0.75;;
74328;SDS011;62745;51.060;13.786;2022-09-02T09:20:36;2.83;;;0.90;;
74328;SDS011;62745;51.060;13.786;2022-09-02T09:23:17;1.67;;;0.70;;
74328;SDS011;62745;51.060;13.786;2022-09-02T09:25:53;1.67;;;0.80;;
74328;SDS011;62745;51.060;13.786;2022-09-02T09:28:27;1.95;;;0.70;;
74328;SDS011;62745;51.060;13.786;2022-09-02T09:30:52;2.00;;;0.60;;
74328;SDS011;62745;51.060;13.786;2022-09-02T09:33:17;3.00;;;0.70;;
74328;SDS011;62745;51.060;13.786;2022-09-02T09:35:50;1.40;;;0.60;;
74328;SDS011;62745;51.060;13.786;2022-09-02T09:38:26;2.08;;;0.70;;
74328;SDS011;62745;51.060;13.786;2022-09-02T09:41:18;1.73;;;0.70;;
74328;SDS011;62745;51.060;13.786;2022-09-02T09:43:47;2.30;;;0.85;;
74328;SDS011;62745;51.060;13.786;2022-09-02T09:46:46;1.93;;;0.70;;
74328;SDS011;62745;51.060;13.786;2022-09-02T09:49:04;1.63;;;0.60;;
74328;SDS011;62745;51.060;13.786;2022-09-02T09:51:30;1.58;;;0.57;;
74328;SDS011;62745;51.060;13.786;2022-09-02T09:54:14;3.73;;;0.70;;
74328;SDS011;62745;51.060;13.786;2022-09-02T09:56:40;2.70;;;0.75;;
74328;SDS011;62745;51.060;13.786;2022-09-02T09:59:06;2.10;;;0.60;;
74328;SDS011;62745;51.060;13.786;2022-09-02T10:01:33;2.72;;;0.80;;
74328;SDS011;62745;51.060;13.786;2022-09-02T10:04:03;1.73;;;0.73;;
74328;SDS011;62745;51.060;13.786;2022-09-02T10:08:59;2.17;;;0.60;;
74328;SDS011;62745;51.060;13.786;2022-09-02T10:11:33;2.75;;;0.70;;
74328;SDS011;62745;51.060;13.786;2022-09-02T10:22:36;1.88;;;0.70;;
74328;SDS011;62745;51.060;13.786;2022-09-02T10:27:50;2.70;;;0.80;;
74328;SDS011;62745;51.060;13.786;2022-09-02T10:30:20;2.28;;;0.80;;
74328;SDS011;62745;51.060;13.786;2022-09-02T10:35:44;1.48;;;0.63;;
74328;SDS011;62745;51.060;13.786;2022-09-02T10:38:15;1.77;;;0.80;;
74328;SDS011;62745;51.060;13.786;2022-09-02T10:40:50;2.80;;;1.00;;
74328;SDS011;62745;51.060;13.786;2022-09-02T10:45:58;1.58;;;0.60;;
74328;SDS011;62745;51.060;13.786;2022-09-02T10:48:30;1.85;;;0.60;;
74328;SDS011;62745;51.060;13.786;2022-09-02T10:51:24;1.60;;;0.60;;
74328;SDS011;62745;51.060;13.786;2022-09-02T10:54:20;0.93;;;0.50;;
74328;SDS011;62745;51.060;13.786;2022-09-02T10:57:12;1.48;;;0.70;;
74328;SDS011;62745;51.060;13.786;2022-09-02T10:59:52;2.50;;;0.70;;
74328;SDS011;62745;51.060;13.786;2022-09-02T11:02:29;4.38;;;0.90;;
74328;SDS011;62745;51.060;13.786;2022-09-02T11:05:01;2.58;;;0.80;;
74328;SDS011;62745;51.060;13.786;2022-09-02T11:07:40;2.08;;;0.70;;
74328;SDS011;62745;51.060;13.786;2022-09-02T11:10:15;2.90;;;0.60;;
74328;SDS011;62745;51.060;13.786;2022-09-02T11:12:54;1.60;;;0.63;;
74328;SDS011;62745;51.060;13.786;2022-09-02T11:18:17;2.88;;;0.80;;
74328;SDS011;62745;51.060;13.786;2022-09-02T11:25:59;3.03;;;0.88;;
74328;SDS011;62745;51.060;13.786;2022-09-02T11:31:25;1.83;;;0.68;;
74328;SDS011;62745;51.060;13.786;2022-09-02T11:34:02;2.50;;;0.88;;
74328;SDS011;62745;51.060;13.786;2022-09-02T11:36:40;1.90;;;0.70;;
74328;SDS011;62745;51.060;13.786;2022-09-02T11:39:14;4.43;;;0.80;;
74328;SDS011;62745;51.060;13.786;2022-09-02T11:48:02;2.92;;;0.75;;
74328;SDS011;62745;51.060;13.786;2022-09-02T11:50:40;3.00;;;0.60;;
74328;SDS011;62745;51.060;13.786;2022-09-02T12:01:15;1.50;;;0.52;;
74328;SDS011;62745;51.060;13.786;2022-09-02T12:03:48;1.67;;;0.80;;
74328;SDS011;62745;51.060;13.786;2022-09-02T12:06:20;2.28;;;0.50;;
74328;SDS011;62745;51.060;13.786;2022-09-02T12:14:04;2.30;;;0.80;;
74328;SDS011;62745;51.060;13.786;2022-09-02T12:16:34;2.85;;;0.73;;
74328;SDS011;62745;51.060;13.786;2022-09-02T12:21:32;1.33;;;0.55;;
74328;SDS011;62745;51.060;13.786;2022-09-02T12:26:25;1.25;;;0.60;;
74328;SDS011;62745;51.060;13.786;2022-09-02T12:31:47;2.25;;;0.73;;
74328;SDS011;62745;51.060;13.786;2022-09-02T12:36:48;1.55;;;0.50;;
74328;SDS011;62745;51.060;13.786;2022-09-02T12:55:09;2.65;;;0.70;;
74328;SDS011;62745;51.060;13.786;2022-09-02T12:57:43;1.50;;;0.60;;
74328;SDS011;62745;51.060;13.786;2022-09-02T13:00:15;2.03;;;0.70;;
74328;SDS011;62745;51.060;13.786;2022-09-02T13:02:59;2.25;;;0.70;;
74328;SDS011;62745;51.060;13.786;2022-09-02T13:25:26;2.20;;;0.70;;
74328;SDS011;62745;51.060;13.786;2022-09-02T13:28:17;2.67;;;0.80;;
74328;SDS011;62745;51.060;13.786;2022-09-02T13:33:15;2.70;;;0.80;;
74328;SDS011;62745;51.060;13.786;2022-09-02T13:35:41;1.95;;;0.77;;
74328;SDS011;62745;51.060;13.786;2022-09-02T13:38:10;1.75;;;0.75;;
74328;SDS011;62745;51.060;13.786;2022-09-02T13:43:08;2.97;;;0.90;;
74328;SDS011;62745;51.060;13.786;2022-09-02T13:45:40;1.52;;;0.60;;
74328;SDS011;62745;51.060;13.786;2022-09-02T13:48:07;3.03;;;0.70;;
74328;SDS011;62745;51.060;13.786;2022-09-02T13:50:35;1.88;;;0.75;;
74328;SDS011;62745;51.060;13.786;2022-09-02T13:53:06;2.28;;;0.90;;
74328;SDS011;62745;51.060;13.786;2022-09-02T13:55:32;2.42;;;1.02;;
74328;SDS011;62745;51.060;13.786;2022-09-02T13:58:20;1.63;;;0.70;;
74328;SDS011;62745;51.060;13.786;2022-09-02T14:03:48;1.35;;;0.60;;
74328;SDS011;62745;51.060;13.786;2022-09-02T14:06:16;1.73;;;0.63;;
74328;SDS011;62745;51.060;13.786;2022-09-02T14:08:43;1.10;;;0.60;;
74328;SDS011;62745;51.060;13.786;2022-09-02T14:11:12;1.63;;;0.70;;
74328;SDS011;62745;51.060;13.786;2022-09-02T14:13:41;1.42;;;0.60;;
74328;SDS011;62745;51.060;13.786;2022-09-02T14:16:23;2.70;;;0.80;;
74328;SDS011;62745;51.060;13.786;2022-09-02T14:21:35;4.38;;;0.95;;
74328;SDS011;62745;51.060;13.786;2022-09-02T14:24:02;2.30;;;0.80;;
74328;SDS011;62745;51.060;13.786;2022-09-02T14:26:42;2.80;;;0.82;;
74328;SDS011;62745;51.060;13.786;2022-09-02T14:29:15;1.90;;;0.77;;
74328;SDS011;62745;51.060;13.786;2022-09-02T14:31:43;3.63;;;0.73;;
74328;SDS011;62745;51.060;13.786;2022-09-02T14:39:52;2.88;;;0.80;;
74328;SDS011;62745;51.060;13.786;2022-09-02T14:42:28;3.17;;;0.98;;
74328;SDS011;62745;51.060;13.786;2022-09-02T14:44:54;1.90;;;0.80;;
74328;SDS011;62745;51.060;13.786;2022-09-02T14:47:20;2.50;;;0.82;;
74328;SDS011;62745;51.060;13.786;2022-09-02T14:49:48;1.95;;;0.80;;
74328;SDS011;62745;51.060;13.786;2022-09-02T14:52:17;2.95;;;0.82;;
74328;SDS011;62745;51.060;13.786;2022-09-02T14:54:48;1.88;;;0.80;;
74328;SDS011;62745;51.060;13.786;2022-09-02T14:57:27;1.67;;;0.70;;
74328;SDS011;62745;51.060;13.786;2022-09-02T14:59:55;2.05;;;0.90;;
74328;SDS011;62745;51.060;13.786;2022-09-02T15:02:23;2.55;;;0.98;;
74328;SDS011;62745;51.060;13.786;2022-09-02T15:04:54;2.50;;;0.93;;
74328;SDS011;62745;51.060;13.786;2022-09-02T15:07:21;1.70;;;0.82;;
74328;SDS011;62745;51.060;13.786;2022-09-02T15:09:47;2.60;;;0.90;;
74328;SDS011;62745;51.060;13.786;2022-09-02T15:12:16;2.50;;;0.80;;
74328;SDS011;62745;51.060;13.786;2022-09-02T15:14:48;1.90;;;0.90;;
74328;SDS011;62745;51.060;13.786;2022-09-02T15:17:14;3.60;;;1.00;;
74328;SDS011;62745;51.060;13.786;2022-09-02T15:19:39;1.50;;;0.80;;
74328;SDS011;62745;51.060;13.786;2022-09-02T15:22:05;1.93;;;0.77;;
74328;SDS011;62745;51.060;13.786;2022-09-02T15:24:30;2.47;;;0.83;;
74328;SDS011;62745;51.060;13.786;2022-09-02T15:26:55;2.67;;;0.80;;
74328;SDS011;62745;51.060;13.786;2022-09-02T15:29:21;2.87;;;0.80;;
74328;SDS011;62745;51.060;13.786;2022-09-02T15:31:46;3.10;;;0.80;;
74328;SDS011;62745;51.060;13.786;2022-09-02T15:34:15;1.50;;;0.52;;
74328;SDS011;62745;51.060;13.786;2022-09-02T15:36:40;1.70;;;0.80;;
74328;SDS011;62745;51.060;13.786;2022-09-02T15:39:05;1.93;;;0.70;;
74328;SDS011;62745;51.060;13.786;2022-09-02T15:41:31;2.63;;;0.80;;
74328;SDS011;62745;51.060;13.786;2022-09-02T15:43:56;3.22;;;0.65;;
74328;SDS011;62745;51.060;13.786;2022-09-02T15:46:24;1.48;;;0.70;;
74328;SDS011;62745;51.060;13.786;2022-09-02T15:48:51;2.47;;;0.90;;
74328;SDS011;62745;51.060;13.786;2022-09-02T15:51:18;2.42;;;0.73;;
74328;SDS011;62745;51.060;13.786;2022-09-02T15:53:45;2.28;;;0.82;;
74328;SDS011;62745;51.060;13.786;2022-09-02T15:56:16;2.53;;;0.95;;
74328;SDS011;62745;51.060;13.786;2022-09-02T15:58:43;3.35;;;0.80;;
74328;SDS011;62745;51.060;13.786;2022-09-02T16:01:09;4.07;;;0.82;;
74328;SDS011;62745;51.060;13.786;2022-09-02T16:03:34;2.13;;;0.70;;
74328;SDS011;62745;51.060;13.786;2022-09-02T16:06:03;2.90;;;0.80;;
74328;SDS011;62745;51.060;13.786;2022-09-02T16:08:30;3.08;;;1.00;;
74328;SDS011;62745;51.060;13.786;2022-09-02T16:10:55;2.40;;;0.93;;
74328;SDS011;62745;51.060;13.786;2022-09-02T16:13:20;3.97;;;0.90;;
74328;SDS011;62745;51.060;13.786;2022-09-02T16:15:46;3.23;;;0.80;;
74328;SDS011;62745;51.060;13.786;2022-09-02T16:18:12;2.55;;;1.00;;
74328;SDS011;62745;51.060;13.786;2022-09-02T16:20:37;3.15;;;0.95;;
74328;SDS011;62745;51.060;13.786;2022-09-02T16:23:02;1.90;;;0.80;;
74328;SDS011;62745;51.060;13.786;2022-09-02T16:25:28;2.27;;;0.90;;
74328;SDS011;62745;51.060;13.786;2022-09-02T16:27:53;2.23;;;0.83;;
74328;SDS011;62745;51.060;13.786;2022-09-02T16:30:19;2.95;;;0.90;;
74328;SDS011;62745;51.060;13.786;2022-09-02T16:32:45;4.10;;;1.00;;
74328;SDS011;62745;51.060;13.786;2022-09-02T16:35:11;3.42;;;0.82;;
74328;SDS011;62745;51.060;13.786;2022-09-02T16:37:37;1.80;;;0.80;;
74328;SDS011;62745;51.060;13.786;2022-09-02T16:40:02;3.00;;;0.77;;
74328;SDS011;62745;51.060;13.786;2022-09-02T16:42:28;2.05;;;0.70;;